Time;durP1;ratioP1;P1;durP2;ratioP2;P2;SDS_P1;SDS_P2;PMS_P1;PMS_P2;Temp;Humidity;BMP_temperature;BMP_pressure;BME280_temperature;BME280_humidity;BME280_pressure;Samples;Min_cycle;Max_cycle;Signal;HPM_P1;HPM_P2
2022/07/04 00:00:09;;;;;;;7.72;5.20;;;13.60;99.90;;;;;;5012178;28;20442;-79
2022/07/04 00:02:40;;;;;;;5.65;4.65;;;13.50;99.90;;;;;;4999919;28;20078;-79
2022/07/04 00:05:09;;;;;;;6.28;5.30;;;13.50;99.90;;;;;;5028814;28;20045;-79
2022/07/04 00:07:36;;;;;;;6.28;5.68;;;13.50;99.90;;;;;;5024967;28;20128;-79
2022/07/04 00:10:03;;;;;;;6.65;4.97;;;13.50;99.90;;;;;;5016162;28;20037;-79
2022/07/04 00:12:29;;;;;;;5.95;5.20;;;13.50;99.90;;;;;;5036938;28;20495;-79
2022/07/04 00:14:55;;;;;;;9.40;5.30;;;13.50;99.90;;;;;;5011482;28;20079;-79
2022/07/04 00:17:23;;;;;;;6.13;5.28;;;13.50;99.90;;;;;;5031478;28;20528;-79
2022/07/04 00:19:49;;;;;;;9.10;6.22;;;13.40;99.90;;;;;;5021023;28;20045;-79
2022/07/04 00:22:15;;;;;;;6.93;5.28;;;13.40;99.90;;;;;;5029959;28;20092;-79
2022/07/04 00:24:40;;;;;;;5.82;5.20;;;13.40;99.90;;;;;;5046001;28;20029;-79
2022/07/04 00:27:06;;;;;;;6.93;5.80;;;13.30;99.90;;;;;;5031989;28;20438;-79
2022/07/04 00:29:33;;;;;;;9.98;5.90;;;13.30;99.90;;;;;;5031667;28;20041;-79
2022/07/04 00:31:59;;;;;;;8.10;6.55;;;13.30;99.90;;;;;;5016087;28;20116;-79
2022/07/04 00:34:25;;;;;;;9.20;5.88;;;13.30;99.90;;;;;;5017668;28;20033;-77
2022/07/04 00:36:51;;;;;;;8.27;6.95;;;13.30;99.90;;;;;;5010512;28;20087;-79
2022/07/04 00:39:17;;;;;;;8.68;5.82;;;13.20;99.90;;;;;;5017373;28;20041;-79
2022/07/04 00:41:42;;;;;;;7.20;6.10;;;13.20;99.90;;;;;;5034076;28;20042;-79
2022/07/04 00:44:11;;;;;;;8.70;6.88;;;13.10;99.90;;;;;;5028966;28;20048;-79
2022/07/04 00:46:36;;;;;;;13.18;6.78;;;13.10;99.90;;;;;;5035985;28;20033;-79
2022/07/04 00:49:08;;;;;;;8.98;6.50;;;13.10;99.90;;;;;;5040373;28;20047;-79
2022/07/04 00:51:37;;;;;;;9.13;7.43;;;13.10;99.90;;;;;;5035827;28;20033;-79
2022/07/04 00:54:05;;;;;;;10.13;7.07;;;13.10;99.90;;;;;;5030088;28;20029;-79
2022/07/04 00:56:31;;;;;;;11.27;7.78;;;13.10;99.90;;;;;;5035177;28;20041;-79
2022/07/04 00:58:59;;;;;;;8.40;7.60;;;13.10;99.90;;;;;;5008064;28;20049;-78
2022/07/04 01:01:25;;;;;;;11.77;8.32;;;13.10;99.90;;;;;;5022761;28;20073;-78
2022/07/04 01:03:50;;;;;;;9.75;8.10;;;13.10;99.90;;;;;;4993399;28;20048;-79
2022/07/04 01:06:18;;;;;;;9.80;8.20;;;13.10;99.90;;;;;;5026684;28;20132;-79
2022/07/04 01:08:44;;;;;;;8.95;7.30;;;13.10;99.90;;;;;;5034858;28;20125;-79
2022/07/04 01:11:10;;;;;;;12.13;7.72;;;13.00;99.90;;;;;;5013753;28;20077;-79
2022/07/04 01:13:36;;;;;;;10.70;7.57;;;13.00;99.90;;;;;;5028175;28;20119;-79
2022/07/04 01:16:03;;;;;;;9.90;8.35;;;12.90;99.90;;;;;;5042542;28;20044;-79
2022/07/04 01:18:30;;;;;;;13.40;8.38;;;12.90;99.90;;;;;;5022445;28;20049;-79
2022/07/04 01:20:56;;;;;;;9.50;8.10;;;12.90;99.90;;;;;;5012642;28;20041;-79
2022/07/04 01:23:24;;;;;;;13.35;9.07;;;12.90;99.90;;;;;;5015265;28;20032;-79
2022/07/04 01:25:50;;;;;;;11.98;8.82;;;12.90;99.90;;;;;;4995417;28;20076;-79
2022/07/04 01:28:21;;;;;;;9.90;8.85;;;12.90;99.90;;;;;;5029497;28;20041;-79
2022/07/04 01:30:48;;;;;;;9.90;8.65;;;12.90;99.90;;;;;;5033177;28;20037;-79
2022/07/04 01:33:17;;;;;;;13.50;9.13;;;12.90;99.90;;;;;;5011523;28;20080;-79
2022/07/04 01:35:47;;;;;;;10.30;8.60;;;12.80;99.90;;;;;;5007973;28;20041;-79
2022/07/04 01:38:13;;;;;;;12.90;8.52;;;12.80;99.90;;;;;;5014805;28;20033;-79
2022/07/04 01:40:39;;;;;;;11.43;9.15;;;12.80;99.90;;;;;;5012598;28;20049;-79
2022/07/04 01:43:04;;;;;;;12.93;9.80;;;12.80;99.90;;;;;;5013360;28;20067;-78
2022/07/04 01:45:34;;;;;;;10.70;9.52;;;12.80;99.90;;;;;;5024935;28;20044;-78
2022/07/04 01:48:00;;;;;;;11.77;9.40;;;12.80;99.90;;;;;;5010825;28;20036;-79
2022/07/04 01:50:26;;;;;;;10.07;8.93;;;12.80;99.90;;;;;;5011597;28;20099;-79
2022/07/04 01:52:52;;;;;;;11.75;9.48;;;12.70;99.90;;;;;;5009180;28;20044;-79
2022/07/04 01:55:18;;;;;;;10.88;9.35;;;12.70;99.90;;;;;;5009502;28;20030;-79
2022/07/04 01:57:44;;;;;;;12.60;8.85;;;12.70;99.90;;;;;;4996062;28;20033;-79
2022/07/04 02:02:57;;;;;;;13.43;8.98;;;12.70;99.90;;;;;;5021593;28;20049;-79
2022/07/04 02:05:23;;;;;;;13.55;9.45;;;12.70;99.90;;;;;;4999545;28;20071;-78
2022/07/04 02:07:49;;;;;;;12.32;8.23;;;12.70;99.90;;;;;;5024893;28;20337;-78
2022/07/04 02:10:15;;;;;;;10.55;9.45;;;12.60;99.90;;;;;;4996390;28;20088;-78
2022/07/04 02:15:25;;;;;;;11.73;9.50;;;12.60;99.90;;;;;;5043099;28;20042;-78
2022/07/04 02:17:51;;;;;;;9.25;8.02;;;12.50;99.90;;;;;;5012500;28;20037;-79
2022/07/04 02:20:17;;;;;;;12.20;9.27;;;12.50;99.90;;;;;;5026398;28;20048;-79
2022/07/04 02:22:42;;;;;;;11.60;9.00;;;12.50;99.90;;;;;;4996411;28;20034;-79
2022/07/04 02:25:08;;;;;;;15.90;9.52;;;12.50;99.90;;;;;;5016474;28;21104;-79
2022/07/04 02:27:34;;;;;;;14.48;9.55;;;12.50;99.90;;;;;;5011377;28;20041;-79
2022/07/04 02:30:00;;;;;;;16.23;10.07;;;12.50;99.90;;;;;;4994681;28;20041;-78
2022/07/04 02:32:25;;;;;;;12.35;9.65;;;12.50;99.90;;;;;;5006690;28;20029;-78
2022/07/04 02:34:51;;;;;;;10.30;9.18;;;12.50;99.90;;;;;;4995843;28;20132;-79
2022/07/04 02:37:17;;;;;;;10.27;8.43;;;12.50;99.90;;;;;;4994119;28;20478;-78
2022/07/04 02:39:43;;;;;;;11.15;10.02;;;12.50;99.90;;;;;;5011419;28;20050;-79
2022/07/04 02:42:09;;;;;;;11.10;9.27;;;12.50;99.90;;;;;;5017597;28;20247;-79
2022/07/04 02:44:37;;;;;;;11.25;9.30;;;12.50;99.90;;;;;;5012164;28;20613;-79
2022/07/04 02:47:03;;;;;;;11.82;9.05;;;12.40;99.90;;;;;;5012167;28;20072;-79
2022/07/04 02:49:29;;;;;;;11.93;10.25;;;12.40;99.90;;;;;;5021449;28;20444;-79
2022/07/04 02:51:55;;;;;;;13.85;9.93;;;12.40;99.90;;;;;;4995743;28;20049;-78
2022/07/04 02:54:20;;;;;;;13.70;10.10;;;12.40;99.90;;;;;;4994282;28;20530;-79
2022/07/04 02:56:46;;;;;;;11.05;9.23;;;12.40;99.90;;;;;;5028734;28;20458;-79
2022/07/04 02:59:12;;;;;;;12.15;10.32;;;12.40;99.90;;;;;;5009342;28;20034;-79
2022/07/04 03:01:38;;;;;;;13.88;10.32;;;12.40;99.90;;;;;;4978231;28;20128;-79
2022/07/04 03:04:04;;;;;;;16.63;10.80;;;12.40;99.90;;;;;;5012175;28;20111;-79
2022/07/04 03:06:30;;;;;;;13.27;10.55;;;12.40;99.90;;;;;;5008401;28;20426;-79
2022/07/04 03:08:59;;;;;;;13.90;11.05;;;12.40;99.90;;;;;;5009791;28;20092;-78
2022/07/04 03:11:27;;;;;;;12.82;10.95;;;12.40;99.90;;;;;;5004499;28;20061;-78
2022/07/04 03:13:53;;;;;;;18.33;11.25;;;12.30;99.90;;;;;;5020875;28;20499;-78
2022/07/04 03:16:19;;;;;;;16.15;10.98;;;12.30;99.90;;;;;;5043582;28;20087;-79
2022/07/04 03:18:44;;;;;;;15.23;11.43;;;12.30;99.90;;;;;;5024988;28;20040;-79
2022/07/04 03:21:10;;;;;;;14.20;11.52;;;12.30;99.90;;;;;;4998246;28;20095;-79
2022/07/04 03:23:36;;;;;;;16.80;11.63;;;12.30;99.90;;;;;;5028527;28;20041;-79
2022/07/04 03:26:02;;;;;;;16.23;11.63;;;12.30;99.90;;;;;;5012227;28;20045;-79
2022/07/04 03:28:28;;;;;;;15.90;10.98;;;12.40;99.90;;;;;;5011963;28;20471;-79
2022/07/04 03:30:54;;;;;;;16.25;11.95;;;12.40;99.90;;;;;;5011451;28;20091;-79
2022/07/04 03:33:20;;;;;;;19.88;11.32;;;12.30;99.90;;;;;;5026396;28;20041;-78
2022/07/04 03:35:45;;;;;;;14.23;10.57;;;12.30;99.90;;;;;;5010966;28;20063;-78
2022/07/04 03:38:11;;;;;;;15.52;11.52;;;12.30;99.90;;;;;;5022477;28;20410;-78
2022/07/04 03:40:38;;;;;;;18.83;11.93;;;12.30;99.90;;;;;;5008141;28;20052;-78
2022/07/04 03:43:06;;;;;;;14.75;11.10;;;12.30;99.90;;;;;;5023343;28;20042;-78
2022/07/04 03:45:32;;;;;;;14.48;12.02;;;12.30;99.90;;;;;;5035524;28;20041;-79
2022/07/04 03:47:58;;;;;;;13.45;11.50;;;12.30;99.90;;;;;;5024637;28;20041;-78
2022/07/04 03:50:24;;;;;;;18.30;12.52;;;12.40;99.90;;;;;;5008248;28;20083;-78
2022/07/04 03:52:50;;;;;;;19.90;12.80;;;12.30;99.90;;;;;;5020145;28;20087;-78
2022/07/04 03:55:17;;;;;;;16.42;13.35;;;12.40;99.90;;;;;;5024952;28;20133;-78
2022/07/04 03:57:42;;;;;;;13.45;11.75;;;12.30;99.90;;;;;;5010150;28;20038;-78
2022/07/04 04:00:10;;;;;;;20.48;12.95;;;12.30;99.90;;;;;;4994984;28;20493;-78
2022/07/04 04:02:36;;;;;;;16.52;13.20;;;12.30;99.90;;;;;;5027105;28;20041;-78
2022/07/04 04:07:47;;;;;;;17.63;12.98;;;12.40;99.90;;;;;;5025411;28;20080;-78
2022/07/04 04:10:13;;;;;;;16.80;12.02;;;12.30;99.90;;;;;;5023219;28;20451;-78
2022/07/04 04:12:39;;;;;;;19.63;13.57;;;12.30;99.90;;;;;;4994568;28;20038;-77
2022/07/04 04:15:05;;;;;;;19.92;13.90;;;12.40;99.90;;;;;;4995158;28;20566;-77
2022/07/04 04:17:30;;;;;;;21.63;13.77;;;12.40;99.90;;;;;;5009432;28;20037;-78
2022/07/04 04:19:56;;;;;;;16.45;12.27;;;12.40;99.90;;;;;;5009024;28;20045;-78
2022/07/04 04:22:25;;;;;;;18.50;13.20;;;12.40;99.90;;;;;;4995347;28;20045;-77
2022/07/04 04:24:50;;;;;;;21.73;13.85;;;12.40;99.90;;;;;;5012681;28;20042;-77
2022/07/04 04:27:17;;;;;;;19.95;14.93;;;12.50;99.90;;;;;;4995194;28;20045;-77
2022/07/04 04:29:43;;;;;;;18.98;14.07;;;12.50;99.90;;;;;;5022976;28;20029;-77
2022/07/04 04:32:08;;;;;;;17.20;14.18;;;12.50;99.90;;;;;;4984914;28;20511;-77
2022/07/04 04:34:34;;;;;;;20.10;13.52;;;12.60;99.90;;;;;;4993970;28;20092;-77
2022/07/04 04:37:00;;;;;;;25.27;14.90;;;12.60;99.90;;;;;;5008380;28;20098;-77
2022/07/04 04:39:26;;;;;;;19.80;14.40;;;12.60;99.90;;;;;;5017868;28;20049;-77
2022/07/04 04:41:52;;;;;;;21.25;14.98;;;12.70;99.90;;;;;;5024409;28;20350;-77
2022/07/04 04:44:19;;;;;;;21.45;14.68;;;12.70;99.90;;;;;;4992436;28;20124;-78
2022/07/04 04:46:45;;;;;;;20.67;15.68;;;12.80;99.90;;;;;;4993996;28;20116;-77
2022/07/04 04:49:11;;;;;;;20.83;14.23;;;12.80;99.90;;;;;;5008312;28;20200;-77
2022/07/04 04:51:40;;;;;;;19.63;14.50;;;12.90;99.90;;;;;;5008376;28;20038;-78
2022/07/04 04:54:06;;;;;;;20.42;14.50;;;13.00;99.90;;;;;;5011549;28;20034;-78
2022/07/04 04:56:34;;;;;;;21.85;13.75;;;13.00;99.90;;;;;;5013804;28;20059;-77
2022/07/04 04:59:00;;;;;;;21.80;14.07;;;13.10;99.90;;;;;;5029781;28;20060;-77
2022/07/04 05:01:25;;;;;;;20.48;12.65;;;13.10;99.90;;;;;;5033361;28;20483;-77
2022/07/04 05:03:51;;;;;;;18.80;13.40;;;13.20;99.90;;;;;;5018838;28;20501;-77
2022/07/04 05:06:18;;;;;;;18.13;12.93;;;13.30;99.90;;;;;;5010394;28;20099;-77
2022/07/04 05:08:44;;;;;;;19.77;12.63;;;13.30;99.90;;;;;;5013052;28;20038;-77
2022/07/04 05:11:10;;;;;;;17.10;10.82;;;13.30;99.90;;;;;;5014111;28;20036;-77
2022/07/04 05:13:36;;;;;;;14.88;11.00;;;13.40;99.90;;;;;;5012131;28;20033;-77
2022/07/04 05:16:02;;;;;;;15.05;12.50;;;13.50;99.90;;;;;;4997280;28;20071;-77
2022/07/04 05:18:28;;;;;;;17.35;10.70;;;13.50;99.90;;;;;;5030609;28;20037;-78
2022/07/04 05:20:54;;;;;;;18.30;10.55;;;13.60;99.90;;;;;;5045925;28;20040;-77
2022/07/04 05:23:23;;;;;;;14.75;10.48;;;13.60;99.90;;;;;;5027426;28;20037;-77
2022/07/04 05:25:48;;;;;;;13.40;9.15;;;13.70;99.90;;;;;;5013111;28;20442;-77
2022/07/04 05:28:14;;;;;;;13.95;9.65;;;13.70;99.90;;;;;;4996708;28;20088;-78
2022/07/04 05:30:40;;;;;;;13.13;9.80;;;13.80;99.90;;;;;;5013374;28;20534;-78
2022/07/04 05:33:05;;;;;;;11.43;9.30;;;13.80;99.90;;;;;;5029123;28;20087;-77
2022/07/04 05:35:31;;;;;;;11.45;8.70;;;13.90;99.90;;;;;;4996479;28;20116;-78
2022/07/04 05:37:57;;;;;;;10.30;8.00;;;13.90;99.90;;;;;;5029762;28;20451;-78
2022/07/04 05:40:23;;;;;;;13.18;8.50;;;14.00;99.90;;;;;;5014336;28;20049;-77
2022/07/04 05:42:49;;;;;;;11.23;8.20;;;14.00;99.90;;;;;;5013196;28;20048;-79
2022/07/04 05:45:15;;;;;;;12.68;7.65;;;14.00;99.90;;;;;;5010054;28;20124;-78
2022/07/04 05:47:41;;;;;;;13.02;8.05;;;14.10;99.90;;;;;;5038039;28;20172;-78
2022/07/04 05:50:09;;;;;;;11.07;7.78;;;14.20;99.90;;;;;;5012111;28;20104;-78
2022/07/04 05:52:35;;;;;;;12.15;8.68;;;14.20;99.90;;;;;;5014269;28;20106;-78
2022/07/04 05:55:01;;;;;;;10.65;8.07;;;14.20;99.90;;;;;;5020949;28;20403;-79
2022/07/04 05:57:27;;;;;;;15.07;8.07;;;14.30;99.90;;;;;;5031406;28;20052;-79
2022/07/04 05:59:53;;;;;;;12.18;7.93;;;14.40;99.90;;;;;;5018416;28;20494;-79
2022/07/04 06:02:25;;;;;;;13.23;7.63;;;14.40;99.90;;;;;;4998768;28;20049;-79
2022/07/04 06:04:52;;;;;;;14.55;7.25;;;14.50;99.90;;;;;;5024647;28;20038;-79
2022/07/04 06:07:20;;;;;;;10.52;8.13;;;14.60;99.90;;;;;;5016638;28;20052;-79
2022/07/04 06:09:46;;;;;;;9.45;7.10;;;14.70;99.90;;;;;;5009697;28;20042;-79
2022/07/04 06:12:12;;;;;;;12.60;8.25;;;14.70;99.90;;;;;;5030968;28;20037;-79
2022/07/04 06:14:37;;;;;;;10.00;7.35;;;14.80;99.90;;;;;;5012001;28;20529;-78
2022/07/04 06:17:03;;;;;;;9.75;6.88;;;14.90;99.90;;;;;;5024089;28;20041;-79
2022/07/04 06:19:29;;;;;;;11.15;6.55;;;15.00;99.90;;;;;;5006131;28;20072;-80
2022/07/04 06:21:55;;;;;;;7.80;6.03;;;15.00;99.90;;;;;;5013514;28;20076;-79
2022/07/04 06:24:21;;;;;;;9.70;7.13;;;15.10;99.90;;;;;;5013997;28;20041;-80
2022/07/04 06:26:46;;;;;;;8.60;7.07;;;15.10;99.90;;;;;;5003290;28;20038;-80
2022/07/04 06:29:12;;;;;;;14.13;8.35;;;15.20;99.90;;;;;;5014817;28;20036;-80
2022/07/04 06:31:38;;;;;;;11.05;7.97;;;15.30;99.90;;;;;;5043957;28;20079;-80
2022/07/04 06:36:48;;;;;;;15.43;7.72;;;15.30;99.90;;;;;;5029571;28;20042;-79
2022/07/04 06:39:14;;;;;;;14.68;8.45;;;15.40;99.90;;;;;;5012453;28;20037;-80
2022/07/04 06:41:39;;;;;;;22.23;8.10;;;15.50;99.90;;;;;;5042646;28;20053;-79
2022/07/04 06:44:05;;;;;;;11.00;7.63;;;15.60;99.90;;;;;;5006334;28;20034;-80
2022/07/04 06:46:31;;;;;;;12.88;7.85;;;15.60;99.90;;;;;;4996859;28;20038;-79
2022/07/04 06:48:57;;;;;;;12.35;7.32;;;15.70;99.90;;;;;;5023489;28;20052;-79
2022/07/04 06:51:23;;;;;;;11.43;7.72;;;15.80;99.90;;;;;;4996882;28;20120;-79
2022/07/04 06:53:51;;;;;;;13.55;7.78;;;15.90;99.90;;;;;;5029681;28;20064;-79
2022/07/04 06:56:20;;;;;;;10.90;5.60;;;16.00;99.90;;;;;;5025944;28;20538;-80
2022/07/04 06:58:46;;;;;;;7.55;5.32;;;16.10;99.90;;;;;;5017196;28;20388;-79
2022/07/04 07:01:14;;;;;;;9.55;4.95;;;16.20;99.90;;;;;;5027390;28;20053;-80
2022/07/04 07:03:39;;;;;;;6.32;5.72;;;16.30;99.90;;;;;;5008556;28;20053;-78
2022/07/04 07:06:05;;;;;;;9.32;5.68;;;16.40;99.90;;;;;;5011745;28;20057;-78
2022/07/04 07:08:31;;;;;;;7.07;4.75;;;16.50;99.90;;;;;;4996607;28;20053;-78
2022/07/04 07:11:17;;;;;;;11.60;5.07;;;16.60;99.90;;;;;;5011930;28;20124;-79
2022/07/04 07:13:47;;;;;;;9.80;5.10;;;16.60;99.90;;;;;;5018616;28;20036;-79
2022/07/04 07:16:17;;;;;;;12.00;5.95;;;16.80;99.90;;;;;;5022825;28;20496;-79
2022/07/04 07:18:44;;;;;;;7.25;5.10;;;16.80;99.90;;;;;;5014972;28;20038;-79
2022/07/04 07:21:12;;;;;;;10.98;5.82;;;17.00;99.90;;;;;;5013089;28;20099;-80
2022/07/04 07:23:40;;;;;;;11.32;5.90;;;17.10;99.90;;;;;;5012050;28;20514;-79
2022/07/04 07:26:06;;;;;;;11.02;6.15;;;17.20;99.90;;;;;;5032311;28;20164;-79
2022/07/04 07:28:32;;;;;;;11.10;5.90;;;17.30;99.90;;;;;;4993544;28;20099;-79
2022/07/04 07:30:57;;;;;;;10.48;6.28;;;17.40;99.90;;;;;;4997828;28;20119;-79
2022/07/04 07:33:23;;;;;;;16.15;6.20;;;17.50;99.90;;;;;;5022744;28;20606;-78
2022/07/04 07:35:49;;;;;;;10.50;5.50;;;17.60;99.90;;;;;;5008796;28;20410;-78
2022/07/04 07:38:15;;;;;;;11.55;5.40;;;17.60;99.90;;;;;;4993091;28;20037;-79
2022/07/04 07:40:40;;;;;;;8.85;5.05;;;17.80;99.90;;;;;;4992002;28;20064;-78
2022/07/04 07:43:07;;;;;;;10.80;5.57;;;17.80;99.90;;;;;;5027653;28;20053;-80
2022/07/04 07:45:33;;;;;;;13.45;5.35;;;17.80;99.90;;;;;;5033522;28;20042;-79
2022/07/04 07:47:59;;;;;;;11.07;4.97;;;17.80;99.90;;;;;;4998333;28;20034;-79
2022/07/04 07:50:24;;;;;;;9.55;4.93;;;17.80;99.90;;;;;;5025515;28;20121;-79
2022/07/04 07:52:50;;;;;;;11.30;5.75;;;17.90;99.90;;;;;;5023714;28;20056;-79
2022/07/04 07:55:16;;;;;;;9.82;5.55;;;18.10;99.90;;;;;;4994702;28;20120;-79
2022/07/04 07:57:42;;;;;;;10.45;5.85;;;18.30;99.90;;;;;;5008817;28;20478;-79
2022/07/04 08:00:08;;;;;;;12.80;5.68;;;18.40;99.90;;;;;;5035705;28;20121;-80
2022/07/04 08:05:18;;;;;;;7.43;5.38;;;18.50;99.90;;;;;;5027097;28;20050;-79
2022/07/04 08:07:46;;;;;;;11.32;5.90;;;18.50;99.90;;;;;;5010364;28;20099;-79
2022/07/04 08:10:12;;;;;;;11.18;5.78;;;18.50;99.90;;;;;;4978714;28;20049;-80
2022/07/04 08:12:38;;;;;;;12.77;5.43;;;18.50;99.90;;;;;;5027257;28;20468;-79
2022/07/04 08:15:04;;;;;;;11.13;4.80;;;18.40;99.90;;;;;;5027319;28;20041;-79
2022/07/04 08:17:30;;;;;;;7.88;4.53;;;18.40;99.90;;;;;;5026567;28;20040;-79
2022/07/04 08:19:56;;;;;;;9.45;4.43;;;18.50;99.90;;;;;;4992340;28;20141;-80
2022/07/04 08:22:22;;;;;;;8.00;4.10;;;18.50;99.90;;;;;;5027879;28;20474;-80
2022/07/04 08:24:47;;;;;;;10.13;4.82;;;18.60;99.90;;;;;;5026463;28;20045;-79
2022/07/04 08:27:13;;;;;;;10.00;4.68;;;18.80;99.90;;;;;;4995976;28;20069;-79
2022/07/04 08:29:39;;;;;;;8.90;4.78;;;18.70;99.90;;;;;;4997833;28;20041;-80
2022/07/04 08:32:07;;;;;;;9.43;4.80;;;18.60;99.90;;;;;;5026464;28;20033;-79
2022/07/04 08:34:34;;;;;;;12.40;4.75;;;18.60;99.90;;;;;;5046617;28;20103;-79
2022/07/04 08:36:59;;;;;;;7.60;4.47;;;18.60;99.90;;;;;;4988708;28;20045;-79
2022/07/04 08:39:25;;;;;;;11.43;4.18;;;18.50;99.90;;;;;;5015317;28;20045;-80
2022/07/04 08:41:55;;;;;;;9.73;4.57;;;18.50;99.90;;;;;;5030873;28;20201;-80
2022/07/04 08:44:23;;;;;;;6.38;4.43;;;18.30;99.90;;;;;;5026390;28;21262;-83
2022/07/04 08:46:52;;;;;;;9.93;4.40;;;18.20;99.90;;;;;;4997496;28;20052;-80
2022/07/04 08:49:22;;;;;;;12.63;4.53;;;18.10;99.90;;;;;;5029336;28;20112;-80
2022/07/04 08:52:00;;;;;;;11.07;4.47;;;18.30;99.90;;;;;;5012962;28;20045;-79
2022/07/04 09:00:07;;;;;;;12.27;4.22;;;18.80;99.90;;;;;;5010444;28;20045;-81
2022/07/04 09:02:34;;;;;;;8.30;4.03;;;18.90;99.90;;;;;;5036478;28;20057;-80
2022/07/04 09:05:00;;;;;;;6.28;4.20;;;19.20;99.90;;;;;;5029343;28;20441;-79
2022/07/04 09:07:29;;;;;;;9.60;3.78;;;19.40;99.90;;;;;;4995632;28;20038;-78
2022/07/04 09:09:58;;;;;;;9.35;4.20;;;19.40;99.90;;;;;;5012192;28;20116;-78
2022/07/04 09:12:24;;;;;;;6.78;3.92;;;19.50;99.90;;;;;;5026361;28;20045;-78
2022/07/04 09:14:52;;;;;;;12.23;4.50;;;19.70;99.90;;;;;;5013659;28;20075;-81
2022/07/04 09:17:17;;;;;;;8.30;4.28;;;19.90;99.90;;;;;;5023718;28;20045;-78
2022/07/04 09:19:43;;;;;;;8.18;3.55;;;20.00;99.90;;;;;;5013873;28;20041;-78
2022/07/04 09:22:14;;;;;;;6.85;3.38;;;20.10;99.90;;;;;;5022982;28;20469;-78
2022/07/04 09:24:51;;;;;;;9.35;3.58;;;20.30;99.90;;;;;;4997893;28;20124;-78
2022/07/04 09:27:33;;;;;;;9.55;3.60;;;20.50;99.90;;;;;;5023416;28;20483;-78
2022/07/04 09:30:00;;;;;;;5.05;3.38;;;20.50;99.90;;;;;;5029752;28;20341;-79
2022/07/04 09:32:46;;;;;;;5.72;3.20;;;20.60;99.90;;;;;;5031116;28;20037;-78
2022/07/04 09:35:20;;;;;;;9.07;3.30;;;20.50;99.90;;;;;;5029038;28;20033;-78
2022/07/04 09:37:51;;;;;;;7.32;3.35;;;20.20;99.90;;;;;;5031544;28;20423;-79
2022/07/04 09:43:25;;;;;;;7.28;2.83;;;19.90;99.90;;;;;;5032563;28;20041;-79
2022/07/04 09:45:58;;;;;;;8.13;3.20;;;20.00;99.90;;;;;;5040757;28;20045;-80
2022/07/04 09:48:48;;;;;;;7.63;3.20;;;20.00;99.90;;;;;;5023291;28;20070;-80
2022/07/04 09:51:14;;;;;;;5.55;2.40;;;20.10;99.90;;;;;;5035212;28;20038;-80
2022/07/04 09:53:40;;;;;;;8.45;3.22;;;20.20;99.90;;;;;;5007735;28;20418;-80
2022/07/04 09:56:05;;;;;;;5.40;3.30;;;20.40;99.90;;;;;;5008887;28;20030;-81
2022/07/04 09:58:31;;;;;;;4.75;2.45;;;20.60;99.90;;;;;;5030651;28;20394;-81
2022/07/04 10:00:59;;;;;;;8.48;2.47;;;20.60;99.90;;;;;;5004345;28;20495;-83
2022/07/04 10:03:28;;;;;;;4.20;2.30;;;20.60;99.90;;;;;;5016017;28;20049;-81
2022/07/04 10:06:04;;;;;;;4.28;2.38;;;20.50;99.90;;;;;;5010749;28;20103;-81
2022/07/04 10:08:29;;;;;;;4.70;2.42;;;20.40;99.90;;;;;;5030689;28;20445;-78
2022/07/04 10:11:00;;;;;;;4.80;2.40;;;20.30;99.90;;;;;;5014191;28;20121;-78
2022/07/04 10:13:26;;;;;;;3.38;1.63;;;20.20;99.90;;;;;;5024239;28;20478;-78
2022/07/04 10:15:52;;;;;;;4.95;2.03;;;20.20;99.90;;;;;;5029057;28;20088;-78
2022/07/04 10:18:19;;;;;;;3.35;1.80;;;20.10;99.90;;;;;;5025708;28;20041;-77
2022/07/04 10:20:46;;;;;;;5.55;3.55;;;20.20;99.90;;;;;;5006277;28;20044;-79
2022/07/04 10:23:12;;;;;;;3.17;1.65;;;20.30;99.90;;;;;;5023424;28;20050;-76
2022/07/04 10:25:39;;;;;;;11.35;7.68;;;20.60;99.90;;;;;;5025840;28;20486;-78
2022/07/04 10:28:05;;;;;;;5.40;2.22;;;20.80;99.90;;;;;;5032182;28;20374;-79
2022/07/04 10:30:34;;;;;;;5.57;2.38;;;21.20;99.90;;;;;;5026130;28;20038;-75
2022/07/04 10:33:02;;;;;;;5.75;2.20;;;21.50;99.90;;;;;;5032323;28;20329;-76
2022/07/04 10:36:03;;;;;;;5.68;2.67;;;21.70;99.90;;;;;;5004130;28;20121;-77
2022/07/04 10:38:30;;;;;;;3.67;1.70;;;21.90;99.90;;;;;;5044104;28;20043;-77
2022/07/04 10:41:03;;;;;;;3.92;1.70;;;22.10;99.90;;;;;;5018127;28;20517;-77
2022/07/04 10:46:15;;;;;;;3.55;1.67;;;22.30;99.90;;;;;;5026840;28;20124;-78
2022/07/04 10:49:14;;;;;;;3.95;1.67;;;22.40;99.90;;;;;;5017390;28;20041;-78
2022/07/04 10:52:05;;;;;;;3.78;1.90;;;22.50;99.70;;;;;;5024475;28;20053;-79
2022/07/04 10:54:37;;;;;;;3.58;1.90;;;22.40;99.90;;;;;;4998259;28;20087;-80
2022/07/04 10:57:10;;;;;;;2.92;1.67;;;22.20;99.90;;;;;;5030824;28;20048;-80
2022/07/04 10:59:35;;;;;;;4.03;1.90;;;22.20;99.70;;;;;;5031450;28;20132;-81
2022/07/04 11:02:08;;;;;;;5.20;1.80;;;22.10;99.80;;;;;;5039251;28;20471;-80
2022/07/04 11:04:47;;;;;;;;;;;22.10;99.40;;;;;;5037096;28;20099;-80
2022/07/04 11:07:14;;;;;;;4.80;1.90;;;22.20;98.50;;;;;;5050860;28;19917;-80
2022/07/04 11:09:40;;;;;;;4.28;2.25;;;22.10;98.90;;;;;;5032079;28;20163;-80
2022/07/04 11:12:06;;;;;;;3.63;2.13;;;22.10;99.20;;;;;;5014500;28;20086;-80
2022/07/04 11:14:40;;;;;;;2.80;1.73;;;22.00;98.80;;;;;;5026809;28;20433;-81
2022/07/04 11:17:20;;;;;;;4.13;1.73;;;21.70;98.10;;;;;;5044600;28;20494;-81
2022/07/04 11:19:47;;;;;;;3.42;1.63;;;21.40;98.70;;;;;;5013846;28;20050;-80
2022/07/04 11:22:22;;;;;;;4.65;1.75;;;21.40;98.90;;;;;;5027417;28;20492;-80
2022/07/04 11:24:49;;;;;;;3.05;1.83;;;21.60;98.50;;;;;;5024001;28;20514;-81
2022/07/04 11:27:15;;;;;;;2.47;1.50;;;21.70;98.00;;;;;;5033915;28;20429;-80
2022/07/04 11:29:53;;;;;;;2.03;1.50;;;21.80;97.70;;;;;;5033863;28;20045;-81
2022/07/04 11:32:19;;;;;;;3.83;1.70;;;22.10;97.00;;;;;;4989978;28;20041;-81
2022/07/04 11:34:46;;;;;;;2.75;1.33;;;22.20;96.50;;;;;;5018615;28;20494;-81
2022/07/04 11:37:12;;;;;;;2.70;1.30;;;22.20;95.80;;;;;;5025655;28;20498;-82
2022/07/04 11:39:39;;;;;;;3.92;1.80;;;22.20;95.80;;;;;;5010245;28;20180;-81
2022/07/04 11:45:03;;;;;;;2.92;1.55;;;22.30;95.60;;;;;;5043997;28;20049;-81
2022/07/04 11:47:36;;;;;;;1.95;1.40;;;22.40;95.40;;;;;;4995331;28;20589;-81
2022/07/04 11:50:13;;;;;;;2.50;1.35;;;22.40;95.50;;;;;;5044560;28;20052;-80
2022/07/04 11:52:53;;;;;;;3.30;1.50;;;22.40;95.90;;;;;;5021206;28;20041;-78
2022/07/04 11:55:21;;;;;;;4.78;1.70;;;22.50;95.20;;;;;;5031364;28;20118;-80
2022/07/04 11:57:49;;;;;;;5.35;2.42;;;22.60;95.80;;;;;;5020898;28;20096;-81
2022/07/04 12:00:20;;;;;;;4.22;2.28;;;22.70;96.40;;;;;;5026927;28;20041;-80
2022/07/04 12:02:48;;;;;;;2.22;2.03;;;22.50;96.10;;;;;;5029220;28;20541;-83
2022/07/04 12:05:15;;;;;;;2.60;2.25;;;22.40;96.50;;;;;;5022603;28;20124;-81
2022/07/04 12:07:43;;;;;;;2.33;1.75;;;22.30;96.60;;;;;;5016925;28;20099;-81
2022/07/04 12:10:13;;;;;;;3.88;2.15;;;22.30;96.80;;;;;;5031358;28;20080;-81
2022/07/04 12:12:56;;;;;;;3.20;1.95;;;22.20;96.90;;;;;;5015933;28;20029;-79
2022/07/04 12:15:23;;;;;;;2.97;1.77;;;22.30;95.40;;;;;;4999450;28;20034;-79
2022/07/04 12:17:54;;;;;;;3.60;1.67;;;22.30;96.70;;;;;;5002124;28;20038;-81
2022/07/04 12:20:22;;;;;;;2.15;1.52;;;22.40;95.30;;;;;;5051726;28;20037;-78
2022/07/04 12:22:55;;;;;;;2.83;1.48;;;22.40;96.00;;;;;;5024441;28;20047;-79
2022/07/04 12:25:28;;;;;;;3.67;1.73;;;22.30;95.40;;;;;;5021206;28;20044;-80
2022/07/04 12:27:54;;;;;;;2.00;1.40;;;22.20;95.10;;;;;;5020755;28;20046;-79
2022/07/04 12:30:20;;;;;;;2.08;1.10;;;22.30;95.80;;;;;;5028738;28;20030;-80
2022/07/04 12:32:49;;;;;;;2.45;1.60;;;22.50;95.40;;;;;;5009883;28;20116;-80
2022/07/04 12:35:38;;;;;;;1.98;1.45;;;22.60;94.60;;;;;;5026055;28;20045;-78
2022/07/04 12:38:22;;;;;;;5.75;2.00;;;22.50;91.80;;;;;;5030166;28;20033;-80
2022/07/04 12:41:11;;;;;;;3.40;1.50;;;22.50;92.90;;;;;;5032654;28;20450;-80
2022/07/04 12:43:39;;;;;;;3.67;1.90;;;22.50;93.70;;;;;;5021204;28;20042;-79
2022/07/04 12:46:32;;;;;;;3.53;1.38;;;22.50;94.00;;;;;;5020792;28;20037;-78
2022/07/04 12:49:01;;;;;;;2.38;1.30;;;22.60;94.10;;;;;;5012844;28;20471;-79
2022/07/04 12:51:36;;;;;;;3.20;1.92;;;22.60;93.50;;;;;;5022757;28;20057;-79
2022/07/04 12:54:10;;;;;;;4.05;1.50;;;22.50;93.10;;;;;;5007379;28;20116;-80
2022/07/04 12:56:43;;;;;;;5.35;1.80;;;22.50;93.40;;;;;;5033527;28;20041;-79
2022/07/04 12:59:12;;;;;;;8.77;1.52;;;22.40;93.90;;;;;;5011801;28;20046;-81
2022/07/04 13:01:39;;;;;;;3.85;1.67;;;22.50;93.60;;;;;;4998607;28;20104;-82
2022/07/04 13:04:06;;;;;;;3.75;1.80;;;22.40;93.40;;;;;;5036902;28;20597;-80
2022/07/04 13:06:32;;;;;;;3.13;1.60;;;22.30;93.40;;;;;;5002314;28;20044;-80
2022/07/04 13:08:57;;;;;;;4.57;1.77;;;22.30;93.40;;;;;;5019376;28;20049;-79
2022/07/04 13:14:08;;;;;;;3.92;1.50;;;22.30;92.40;;;;;;5032347;28;20037;-80